Aeroporto :
LOGIN :

Iscrizione | Disclaimer

   EN    FR    IT 

 










Sommario :    VFR   VFR Marginale   IFR   IFR Intensivo   IFR Molto Intensivo
Visibilità : 
Base nubi : 
>= 8 km
>= 3000ft
5 / 8 km
1000 / 3000 ft
1500m / 5 km
500 / 1000 ft
800 / 1500m
200 / 500 ft
< 800m
< 200 ft
Simboli :   Temporali  Nebbia  Neve Forte  Precipitazioni Forti  Vento > 20 kt
SIGMETs :   Varie  Temporali  Ghiacco  Turbolenza  Onda orograficha  Ceneri Vulcaniche






- Altitudine del aeroporto : 1860 ft
- Codice IATA : GRX


LEGR - Granada

ULTIMO METAR :
  • 171500Z VRB01KT CAVOK 21/06 Q1026

METARs OBSOLETI :
  • 171430Z 30004KT 250V340 CAVOK 20/06 Q1026
  • 171400Z 30004KT 260V010 CAVOK 20/08 Q1027
  • 171330Z VRB02KT CAVOK 19/08 Q1027
  • 171300Z 00000KT CAVOK 19/08 Q1028
  • 171230Z 00000KT CAVOK 17/08 Q1028

TAF TAF LEGR
Valido dal 17 a 15 ore il 18 a 15 ore UTC


171400Z 1715/1815 30010KT CAVOK TX22/1715Z TN03/1807Z
BECMG 1718/1720 VRB02KT



MetMap, La meteo Aeronautica in un colpo d'occhio ! - Copyright ORBIFLY Dicembre 2007 - Disclaimer

ORBIFLY MET'MAP TEAM :

Programmazione e sviluppo : Alexandra Zaïnal
Concezione : Baudouin d'Aumeries
Aiuto per la programmazione : Marc-Olivier Méhu
Supporto tecnico e logistico : Manuel Goepfert
Aiuto per la traduzione : Arnaldo La Scala

Contatto : metmap@orbifly.com




FONTI E CREDITI :

   NOAA